Elmira, CA (95625)

11:24 AM PST on December 02, 2016 (GMT -0800)
KCAVACAV8 | | Change Station

Elev 125 ft 38.34 °N, 121.94 °W | Updated 11 seconds ago

Clear
Clear
57.7 °F
Feels Like 57.7 °F
N
7.0
Wind Variable Wind from NW
Gusts 21.0 mph

Today
High -- | Low -- °F
--% Chance of Precip.
Yesterday
High -- | Low -- °F
Precip. -- in
Pressure 30.25 in
Visibility 10.0 miles
Clouds Clear
Dew Point 30 °F
Humidity 34%
Rainfall in
Snow Depth Not available.
7:07 AM 4:47 PM
Waxing Crescent, 10% visible
METAR KVCB 021853Z AUTO 01016G24KT 10SM CLR 15/M02 A3025 RMK AO2 PK WND 36032/1757 SLP244 T01501022
Pressure 30.25 in
Visibility 10.0 miles
Clouds Clear
Dew Point 30 °F
Humidity 34%
Rainfall in
Snow Depth Not available.
7:07 AM 4:47 PM
Waxing Crescent, 10% visible
METAR KVCB 021853Z AUTO 01016G24KT 10SM CLR 15/M02 A3025 RMK AO2 PK WND 36032/1757 SLP244 T01501022

10-Day Weather Forecast

Almanac

Astronomy

Dec. 02, 2016 Rise Set
Actual Time
Civil Twilight
Nautical Twilight
Astronomical Twilight
Moon
Length of Visible Light
Length of Day
Tomorrow will be .
, % of the Moon is Illuminated

Today's Extremes

State Highs State Lows

Community

WunderPhotos

Upload Photos

1,955,343 photos uploaded!

WunderBlog® & News

Nearby

Air Quality

  Air Quality AQ Index Pollutant
Not available.

Snow Depth

Station Depth Elevation

Earthquake Activity

City Distance Mag. Time & Date
Minimum magnitude displayed is 2.5.

Coastal Water Temperatures

Place Temperature

Stations

Nearby Weather Stations

Station Location Temp. Windchill Dew Point Humidity Wind Precip. Elev Updated Type
                   

Watches & Warnings

There are currently no watches in effect.